Terminal Aerodrome Forecast
Issued by NWS

Home | Current Version | Previous Version | Text Only | Print | Product List | Glossary On
Versions: 1 2 3 4 5 6 7 8 9 10 11 12 13 14 15 16 17 18 19 20 21 22 23 24
000
FTAK31 PAFA 242340
TAFAQT
TAF
PAQT 242340Z 2500/2524 07005KT 5SM BR BKN004
      TEMPO 2500/2504 2SM -SN BR
     FM250400 07004KT 2SM -SHSN BR BKN004
     FM250800 07004KT 1/2SM FZFG VV002
     FM251900 10005KT 3SM BR BKN004=

USA.gov is the U.S. government's official web portal to all federal, state and local government web resources and services.